Time;durP1;ratioP1;P1;durP2;ratioP2;P2;SDS_P1;SDS_P2;PMS_P1;PMS_P2;Temp;Humidity;BMP_temperature;BMP_pressure;BME280_temperature;BME280_humidity;BME280_pressure;Samples;Min_cycle;Max_cycle;Signal;HPM_P1;HPM_P2
2021/05/23 00:00:00;;;;;;;1.00;1.00;;;;;;;19.20;75.07;97076.44;5054558;28;20698;-68
2021/05/23 00:02:27;;;;;;;1.00;1.00;;;;;;;19.21;74.87;97089.22;5071325;28;20200;-68
2021/05/23 00:04:54;;;;;;;1.00;1.00;;;;;;;19.19;75.16;97085.75;5054660;28;20203;-69
2021/05/23 00:07:25;;;;;;;1.63;1.20;;;;;;;19.06;75.01;97063.25;5070738;28;20224;-69
2021/05/23 00:09:53;;;;;;;0.90;0.90;;;;;;;19.12;74.74;97078.75;5054335;28;20196;-68
2021/05/23 00:12:20;;;;;;;1.00;1.00;;;;;;;18.58;74.96;96977.69;5054006;28;20251;-68
2021/05/23 00:14:46;;;;;;;0.90;0.90;;;;;;;18.57;75.15;96973.44;5043334;28;20200;-69
2021/05/23 00:17:13;;;;;;;1.00;1.00;;;;;;;19.18;75.29;97081.47;5031257;28;20220;-69
2021/05/23 00:19:39;;;;;;;1.00;1.00;;;;;;;19.04;75.09;97069.97;5054155;28;20200;-69
2021/05/23 00:22:06;;;;;;;0.83;0.83;;;;;;;19.03;74.85;97069.94;5054491;28;20329;-68
2021/05/23 00:24:48;;;;;;;0.90;0.90;;;;;;;19.19;75.21;97097.63;5054428;28;20291;-68
2021/05/23 00:27:14;;;;;;;1.00;1.00;;;;;;;19.19;74.98;97107.81;5037084;28;20227;-68
2021/05/23 00:29:41;;;;;;;1.00;1.00;;;;;;;19.11;75.06;97092.31;5054360;28;20258;-70
2021/05/23 00:32:08;;;;;;;1.10;1.10;;;;;;;19.16;75.28;97100.09;5071550;28;20273;-70
2021/05/23 00:34:34;;;;;;;1.00;1.00;;;;;;;19.20;75.24;97099.34;5054289;28;20228;-68
2021/05/23 00:37:01;;;;;;;1.00;1.00;;;;;;;19.18;75.09;97096.75;5071464;28;20259;-68
2021/05/23 00:39:27;;;;;;;0.97;0.97;;;;;;;19.20;75.36;97105.31;5070398;28;20254;-67
2021/05/23 00:41:54;;;;;;;1.00;1.00;;;;;;;18.84;74.88;97045.59;5053389;28;20230;-70
2021/05/23 00:44:21;;;;;;;0.90;0.90;;;;;;;18.97;75.21;97072.28;5036147;28;20193;-70
2021/05/23 00:46:47;;;;;;;1.03;1.03;;;;;;;19.06;75.32;97091.28;5053344;28;20200;-68
2021/05/23 00:49:14;;;;;;;1.10;1.10;;;;;;;19.19;75.08;97115.47;5046159;28;20510;-68
2021/05/23 00:51:40;;;;;;;1.03;1.03;;;;;;;19.19;74.85;97118.84;5050830;28;20216;-69
2021/05/23 00:54:07;;;;;;;1.10;1.10;;;;;;;19.19;75.09;97118.00;5053398;28;20200;-70
2021/05/23 00:56:35;;;;;;;1.07;0.97;;;;;;;18.60;74.86;97015.94;5053049;28;20689;-69
2021/05/23 00:59:02;;;;;;;0.90;0.90;;;;;;;18.44;75.12;96994.19;5047004;28;20681;-68
2021/05/23 01:01:35;;;;;;;1.10;1.00;;;;;;;19.18;75.18;97122.22;5050827;28;20220;-68
2021/05/23 01:04:02;;;;;;;1.10;1.10;;;;;;;19.03;75.13;97097.94;5050442;28;20478;-67
2021/05/23 01:06:28;;;;;;;1.00;1.00;;;;;;;19.04;75.10;97097.16;5038873;28;20762;-69
2021/05/23 01:08:55;;;;;;;0.90;0.90;;;;;;;19.02;75.13;97086.91;5042566;28;20227;-69
2021/05/23 01:11:22;;;;;;;1.00;1.00;;;;;;;19.19;75.10;97112.91;5025591;28;20290;-68
2021/05/23 01:13:58;;;;;;;1.00;1.00;;;;;;;19.19;75.17;97116.31;5069229;28;20257;-69
2021/05/23 01:16:42;;;;;;;1.00;1.00;;;;;;;19.04;74.97;97089.50;5067743;28;20199;-69
2021/05/23 01:19:12;;;;;;;0.93;0.93;;;;;;;17.48;74.88;96828.19;5036271;28;20239;-70
2021/05/23 01:21:41;;;;;;;1.00;1.00;;;;;;;19.13;75.12;97110.19;5065617;28;20289;-70
2021/05/23 01:24:22;;;;;;;1.00;1.00;;;;;;;18.87;74.84;97057.53;5035585;28;20271;-69
2021/05/23 01:26:53;;;;;;;1.00;1.00;;;;;;;19.20;74.99;97119.75;5036708;28;20246;-68
2021/05/23 01:29:20;;;;;;;0.90;0.90;;;;;;;19.05;75.10;97098.88;5037088;28;20192;-69
2021/05/23 01:31:46;;;;;;;1.00;1.00;;;;;;;19.04;75.00;97102.25;5053227;28;20216;-68
2021/05/23 01:34:22;;;;;;;1.10;1.10;;;;;;;19.19;74.92;97115.47;5052636;28;20633;-69
2021/05/23 01:36:50;;;;;;;1.20;1.20;;;;;;;19.03;75.19;97093.72;5070303;28;20665;-68
2021/05/23 01:39:17;;;;;;;1.00;1.00;;;;;;;19.18;75.05;97119.69;5028718;28;20192;-68
2021/05/23 01:41:44;;;;;;;1.10;1.00;;;;;;;19.18;75.16;97114.59;5052626;28;20226;-69
2021/05/23 01:44:10;;;;;;;1.20;1.10;;;;;;;19.03;75.01;97093.72;5047019;28;21124;-70
2021/05/23 01:46:37;;;;;;;1.30;1.20;;;;;;;19.17;75.18;97130.69;5035941;28;20673;-69
2021/05/23 01:49:04;;;;;;;1.23;1.17;;;;;;;19.18;75.20;97126.44;5047092;28;20196;-70
2021/05/23 01:51:31;;;;;;;1.10;1.10;;;;;;;19.12;75.31;97126.25;5070058;28;20790;-68
2021/05/23 01:53:59;;;;;;;1.00;1.00;;;;;;;19.19;74.85;97146.03;5042372;28;20545;-68
2021/05/23 01:56:25;;;;;;;0.90;0.90;;;;;;;18.59;75.19;97047.28;5066331;28;20222;-69
2021/05/23 01:58:52;;;;;;;0.93;0.93;;;;;;;17.25;74.96;96851.91;5044368;28;20298;-68
2021/05/23 02:01:19;;;;;;;1.17;1.13;;;;;;;18.69;75.14;97065.47;5065565;28;20200;-69
2021/05/23 02:03:46;;;;;;;1.07;1.07;;;;;;;19.19;75.13;97149.44;5052692;28;20192;-68
2021/05/23 02:06:12;;;;;;;1.10;1.10;;;;;;;19.03;75.11;97129.38;5069851;28;20220;-68
2021/05/23 02:08:39;;;;;;;0.90;0.90;;;;;;;19.19;75.33;97157.06;5051895;28;20300;-68
2021/05/23 02:11:07;;;;;;;1.10;1.10;;;;;;;19.17;75.04;97148.53;5040658;28;20208;-68
2021/05/23 02:13:38;;;;;;;1.00;1.00;;;;;;;19.19;75.03;97163.88;5069221;28;20653;-70
2021/05/23 02:16:05;;;;;;;1.20;1.10;;;;;;;19.04;75.01;97143.00;5052217;28;20258;-68
2021/05/23 02:18:32;;;;;;;1.00;1.00;;;;;;;18.95;74.90;97122.31;5045760;28;20707;-68
2021/05/23 02:20:59;;;;;;;1.00;1.00;;;;;;;19.19;74.83;97167.25;5035785;28;20250;-68
2021/05/23 02:23:26;;;;;;;0.93;0.93;;;;;;;19.18;74.91;97169.75;5051665;28;20192;-69
2021/05/23 02:25:53;;;;;;;1.00;1.00;;;;;;;18.57;75.03;97070.13;5069819;28;20719;-70
2021/05/23 02:28:20;;;;;;;0.90;0.90;;;;;;;18.60;75.24;97082.09;5051289;28;20222;-69
2021/05/23 02:30:52;;;;;;;1.00;1.00;;;;;;;19.15;75.15;97179.84;5035529;28;20326;-69
2021/05/23 02:33:20;;;;;;;1.30;1.20;;;;;;;18.97;75.20;97158.84;5032671;28;20251;-68
2021/05/23 02:35:50;;;;;;;1.00;1.00;;;;;;;19.10;75.19;97176.31;5037420;28;20249;-70
2021/05/23 02:38:16;;;;;;;0.90;0.90;;;;;;;19.19;75.16;97191.88;5051867;28;20297;-69
2021/05/23 02:40:42;;;;;;;1.07;1.07;;;;;;;18.58;75.00;97094.75;5051723;28;20180;-69
2021/05/23 02:43:09;;;;;;;1.20;1.10;;;;;;;19.20;75.04;97203.78;5040855;28;20200;-69
2021/05/23 02:45:36;;;;;;;1.10;1.10;;;;;;;18.59;74.92;97103.28;5049412;28;20219;-69
2021/05/23 02:48:04;;;;;;;1.00;1.00;;;;;;;19.20;75.02;97209.78;5051344;28;20225;-69
2021/05/23 02:50:32;;;;;;;0.90;0.90;;;;;;;19.21;75.15;97220.81;5051546;28;20222;-68
2021/05/23 02:52:59;;;;;;;1.00;1.00;;;;;;;18.98;75.07;97176.72;5051720;28;20259;-68
2021/05/23 02:55:26;;;;;;;0.90;0.90;;;;;;;18.82;74.98;97153.25;5058421;28;20345;-69
2021/05/23 02:57:52;;;;;;;1.00;1.00;;;;;;;19.03;74.97;97193.03;5040518;28;20216;-68
2021/05/23 03:00:20;;;;;;;1.10;1.00;;;;;;;19.11;75.00;97208.59;5040526;28;20230;-69
2021/05/23 03:02:47;;;;;;;1.07;1.07;;;;;;;18.93;75.00;97182.50;5069638;28;20231;-68
2021/05/23 03:05:16;;;;;;;1.10;1.10;;;;;;;18.86;74.96;97175.47;5051153;28;20373;-69
2021/05/23 03:07:43;;;;;;;1.10;1.10;;;;;;;18.69;75.13;97144.34;5034694;28;20658;-69
2021/05/23 03:10:12;;;;;;;1.00;1.00;;;;;;;19.19;75.12;97233.50;5035054;28;20258;-68
2021/05/23 03:12:39;;;;;;;1.20;1.10;;;;;;;19.18;75.12;97234.31;5036248;28;20788;-69
2021/05/23 03:15:07;;;;;;;1.10;1.10;;;;;;;18.60;75.00;97131.31;5051461;28;20235;-68
2021/05/23 03:17:34;;;;;;;1.10;1.10;;;;;;;19.03;75.08;97210.00;5040250;28;20255;-68
2021/05/23 03:20:00;;;;;;;1.10;1.10;;;;;;;19.18;75.13;97233.44;5040550;28;20204;-69
2021/05/23 03:22:27;;;;;;;1.00;1.00;;;;;;;19.19;75.45;97232.66;5052861;28;20241;-68
2021/05/23 03:24:53;;;;;;;1.00;1.00;;;;;;;18.67;75.13;97145.97;5073015;28;20627;-68
2021/05/23 03:27:20;;;;;;;1.10;1.10;;;;;;;18.75;74.98;97154.75;5054622;28;20720;-68
2021/05/23 03:29:46;;;;;;;1.07;1.07;;;;;;;18.76;74.92;97160.69;5055419;28;20238;-68
2021/05/23 03:32:13;;;;;;;1.00;1.00;;;;;;;18.42;75.09;97097.59;5042399;28;20257;-69
2021/05/23 03:34:40;;;;;;;1.10;1.10;;;;;;;18.85;74.96;97177.16;5064011;28;20246;-68
2021/05/23 03:37:07;;;;;;;1.10;1.10;;;;;;;18.57;74.93;97122.69;5054282;28;20632;-67
2021/05/23 03:39:33;;;;;;;1.00;1.00;;;;;;;19.19;74.92;97246.22;5047736;28;20219;-67
2021/05/23 03:42:00;;;;;;;0.90;0.90;;;;;;;19.17;74.88;97241.91;5054568;28;20197;-69
2021/05/23 03:44:26;;;;;;;1.00;1.00;;;;;;;18.81;74.67;97182.97;5072931;28;20204;-69
2021/05/23 03:46:53;;;;;;;1.00;1.00;;;;;;;19.10;75.24;97235.72;5043875;28;20200;-68
2021/05/23 03:49:19;;;;;;;1.00;1.00;;;;;;;19.18;75.81;97248.72;5055217;28;20242;-68
2021/05/23 03:51:48;;;;;;;1.30;1.20;;;;;;;18.61;75.19;97157.59;5054770;28;20602;-67
2021/05/23 03:54:15;;;;;;;1.10;1.10;;;;;;;19.18;75.00;97251.25;5031682;28;20196;-69
2021/05/23 03:56:41;;;;;;;1.10;1.10;;;;;;;19.02;75.15;97223.56;5072482;28;20235;-68
2021/05/23 03:59:08;;;;;;;0.97;0.97;;;;;;;19.18;75.05;97262.34;5065629;28;20223;-68
2021/05/23 04:01:34;;;;;;;1.10;1.10;;;;;;;19.17;75.33;97263.16;5072724;28;20246;-67
2021/05/23 04:04:02;;;;;;;1.10;1.10;;;;;;;19.02;75.34;97246.47;5054180;28;20249;-69
2021/05/23 04:06:28;;;;;;;1.10;1.10;;;;;;;19.02;75.17;97249.03;5040731;28;20350;-68
2021/05/23 04:08:55;;;;;;;1.10;1.10;;;;;;;19.04;75.12;97247.41;5044122;28;20224;-68
2021/05/23 04:11:28;;;;;;;0.90;0.90;;;;;;;19.02;75.34;97260.09;5048646;28;20200;-68
2021/05/23 04:13:54;;;;;;;1.00;1.00;;;;;;;18.73;75.20;97212.38;5054547;28;20259;-68
2021/05/23 04:16:22;;;;;;;1.00;1.00;;;;;;;19.19;74.99;97293.78;5054182;28;20280;-68
2021/05/23 04:18:48;;;;;;;0.90;0.90;;;;;;;19.03;75.25;97266.03;5054405;28;20290;-69
2021/05/23 04:21:15;;;;;;;0.90;0.90;;;;;;;18.83;74.68;97244.97;5057315;28;20196;-68
2021/05/23 04:23:41;;;;;;;1.00;1.00;;;;;;;19.02;74.89;97271.94;5037845;28;20558;-66
2021/05/23 04:26:08;;;;;;;1.00;1.00;;;;;;;18.93;75.00;97263.97;5042433;28;20201;-66
2021/05/23 04:28:34;;;;;;;0.90;0.90;;;;;;;19.18;75.18;97309.84;5023486;28;20216;-69
2021/05/23 04:31:01;;;;;;;1.10;1.10;;;;;;;18.73;75.51;97232.72;5054062;28;20706;-67
2021/05/23 04:33:28;;;;;;;1.10;1.10;;;;;;;19.15;74.68;97310.63;5043018;28;20655;-68
2021/05/23 04:35:54;;;;;;;1.10;1.10;;;;;;;19.00;75.13;97284.63;5071808;28;20273;-66
2021/05/23 04:38:21;;;;;;;1.00;1.00;;;;;;;19.16;75.21;97314.91;5059613;28;20258;-67
2021/05/23 04:40:50;;;;;;;1.20;1.10;;;;;;;19.18;74.75;97317.50;5068230;28;20625;-68
2021/05/23 04:43:17;;;;;;;1.00;1.00;;;;;;;18.67;75.11;97229.97;5068126;28;20238;-68
2021/05/23 04:45:43;;;;;;;0.93;0.93;;;;;;;19.01;75.16;97293.97;5037073;28;20367;-68
2021/05/23 04:48:10;;;;;;;1.00;1.00;;;;;;;18.70;75.14;97244.47;5053688;28;20277;-69
2021/05/23 04:50:37;;;;;;;1.30;1.20;;;;;;;19.01;75.12;97299.06;5039821;28;20230;-68
2021/05/23 04:53:04;;;;;;;1.10;1.10;;;;;;;19.03;75.20;97311.88;5026753;28;20245;-68
2021/05/23 04:55:32;;;;;;;1.10;1.10;;;;;;;19.17;75.21;97334.47;5026529;28;20204;-68
2021/05/23 04:57:58;;;;;;;1.10;1.10;;;;;;;19.19;75.37;97344.72;5053819;28;20224;-67
2021/05/23 05:00:25;;;;;;;0.90;0.90;;;;;;;19.20;75.18;97347.34;5037106;28;20196;-69
2021/05/23 05:02:51;;;;;;;1.20;1.10;;;;;;;19.04;75.12;97321.25;5071751;28;20635;-67
2021/05/23 05:05:19;;;;;;;1.00;1.00;;;;;;;19.19;75.09;97354.91;5053824;28;20669;-68
2021/05/23 05:07:46;;;;;;;1.23;1.13;;;;;;;18.52;75.04;97241.25;5092172;22;20231;-67
2021/05/23 05:10:12;;;;;;;1.10;1.10;;;;;;;19.18;75.08;97364.22;5050085;28;20243;-67
2021/05/23 05:12:39;;;;;;;1.10;1.10;;;;;;;19.18;75.05;97371.00;5056090;28;20220;-66
2021/05/23 05:15:07;;;;;;;1.30;1.20;;;;;;;18.99;75.12;97346.56;5060700;28;20311;-66
2021/05/23 05:17:34;;;;;;;1.00;1.00;;;;;;;19.19;75.11;97382.94;5055799;28;20248;-67
2021/05/23 05:20:01;;;;;;;1.03;1.03;;;;;;;19.18;75.15;97378.63;5038553;28;20205;-66
2021/05/23 05:22:28;;;;;;;1.00;1.00;;;;;;;19.18;75.27;97383.72;5039216;28;20248;-66
2021/05/23 05:24:54;;;;;;;1.10;1.10;;;;;;;19.17;75.19;97392.19;5037956;28;20240;-66
2021/05/23 05:27:23;;;;;;;1.00;1.00;;;;;;;19.17;75.29;97398.16;5040478;28;20582;-66
2021/05/23 05:29:50;;;;;;;1.10;1.10;;;;;;;19.00;75.14;97371.19;5038908;28;20228;-67
2021/05/23 05:32:16;;;;;;;1.30;1.20;;;;;;;19.18;75.19;97401.56;5040958;28;20283;-66
2021/05/23 05:34:43;;;;;;;0.93;0.93;;;;;;;19.18;75.29;97405.00;5036728;28;20197;-66
2021/05/23 05:37:10;;;;;;;1.00;1.00;;;;;;;19.19;75.07;97405.88;5044109;28;20256;-67
2021/05/23 05:39:36;;;;;;;1.20;1.10;;;;;;;19.18;74.95;97407.53;5031297;28;20193;-67
2021/05/23 05:42:03;;;;;;;1.17;1.10;;;;;;;19.19;75.03;97408.41;5044768;28;20335;-67
2021/05/23 05:44:30;;;;;;;1.13;1.10;;;;;;;19.20;74.96;97417.78;5036752;28;20204;-66
2021/05/23 05:46:56;;;;;;;1.00;1.00;;;;;;;19.20;75.28;97420.31;5036384;28;20205;-67
2021/05/23 05:49:23;;;;;;;1.00;1.00;;;;;;;19.18;74.81;97412.63;5042026;28;20263;-66
2021/05/23 05:51:50;;;;;;;1.00;1.00;;;;;;;19.18;75.16;97412.63;5036360;28;20473;-67
2021/05/23 05:54:17;;;;;;;1.10;1.10;;;;;;;19.18;75.10;97417.72;5038413;28;20752;-67
2021/05/23 05:56:44;;;;;;;0.90;0.90;;;;;;;19.18;74.72;97425.38;5039433;28;20201;-67
2021/05/23 05:59:10;;;;;;;0.90;0.90;;;;;;;19.18;75.00;97434.69;5045235;28;20245;-66
2021/05/23 06:01:37;;;;;;;1.00;1.00;;;;;;;19.18;75.10;97442.31;5030781;28;20216;-67
2021/05/23 06:04:03;;;;;;;0.90;0.90;;;;;;;19.17;75.21;97446.56;5036077;28;20323;-66
2021/05/23 06:06:30;;;;;;;1.00;1.00;;;;;;;19.18;75.31;97453.38;5041736;28;20197;-67
2021/05/23 06:08:57;;;;;;;1.13;1.10;;;;;;;19.18;75.07;97466.13;5036276;28;20234;-66
2021/05/23 06:11:33;;;;;;;0.93;0.93;;;;;;;19.17;75.10;97456.75;5042357;28;20659;-66
2021/05/23 06:13:59;;;;;;;1.00;1.00;;;;;;;19.18;74.85;97462.69;5036274;28;20257;-66
2021/05/23 06:16:26;;;;;;;0.90;0.90;;;;;;;19.18;75.27;97488.19;5043503;28;20205;-66
2021/05/23 06:18:52;;;;;;;1.00;1.00;;;;;;;19.17;74.99;97464.41;5034927;28;20218;-67
2021/05/23 06:21:19;;;;;;;1.10;1.00;;;;;;;19.18;75.13;97461.03;5036576;28;20193;-66
2021/05/23 06:23:46;;;;;;;1.13;1.13;;;;;;;19.19;75.04;97474.66;5040370;28;20681;-66
2021/05/23 06:26:14;;;;;;;1.20;1.20;;;;;;;19.19;75.08;97472.09;5036368;28;20236;-66
2021/05/23 06:28:41;;;;;;;1.17;1.10;;;;;;;19.19;75.16;97477.19;5041309;28;20251;-66
2021/05/23 06:31:08;;;;;;;1.00;1.00;;;;;;;19.19;75.16;97482.28;5036866;28;20627;-66
2021/05/23 06:33:35;;;;;;;0.87;0.87;;;;;;;19.19;75.03;97477.19;5038489;28;20217;-66
2021/05/23 06:36:02;;;;;;;1.03;1.03;;;;;;;19.17;75.17;97474.59;5039135;28;20208;-67
2021/05/23 06:38:29;;;;;;;0.90;0.90;;;;;;;19.19;74.57;97482.28;5038063;28;20637;-66
2021/05/23 06:40:55;;;;;;;1.10;1.10;;;;;;;19.17;74.79;97477.13;5040051;28;20197;-66
2021/05/23 06:43:22;;;;;;;1.10;1.10;;;;;;;19.18;74.86;97475.44;5040467;28;20616;-66
2021/05/23 06:45:48;;;;;;;1.00;1.00;;;;;;;19.17;75.01;97468.63;5034918;28;20198;-66
2021/05/23 06:48:15;;;;;;;1.10;1.10;;;;;;;19.17;75.13;97477.13;5037596;28;20274;-66
2021/05/23 06:50:42;;;;;;;1.10;1.10;;;;;;;19.17;75.22;97478.81;5036394;28;20228;-66
2021/05/23 06:53:08;;;;;;;1.00;1.00;;;;;;;19.18;75.46;97480.53;5039601;28;20314;-67
2021/05/23 06:55:35;;;;;;;2.30;1.10;;;;;;;19.16;75.08;97472.00;5039308;28;20193;-67
2021/05/23 06:58:01;;;;;;;1.07;1.07;;;;;;;19.18;74.98;97483.97;5043596;28;20248;-67
2021/05/23 07:00:28;;;;;;;1.00;1.00;;;;;;;19.17;75.26;97479.69;5044663;28;20607;-67
2021/05/23 07:02:54;;;;;;;1.30;1.20;;;;;;;19.18;75.07;97486.50;5036905;28;20193;-67
2021/05/23 07:05:21;;;;;;;1.20;1.10;;;;;;;19.18;75.13;97486.50;5043257;28;20201;-67
2021/05/23 07:07:48;;;;;;;0.90;0.90;;;;;;;19.17;74.87;97494.97;5040197;28;20225;-67
2021/05/23 07:10:14;;;;;;;1.00;1.00;;;;;;;19.19;75.09;97503.53;5043588;28;20229;-67
2021/05/23 07:12:41;;;;;;;1.00;1.00;;;;;;;19.18;75.37;97513.66;5041472;28;20225;-67
2021/05/23 07:15:08;;;;;;;0.87;0.87;;;;;;;19.19;75.25;97515.41;5043837;28;20246;-67
2021/05/23 07:17:35;;;;;;;1.00;1.00;;;;;;;19.18;75.09;97521.28;5043466;28;20252;-67
2021/05/23 07:20:02;;;;;;;1.00;1.00;;;;;;;19.17;75.01;97519.56;5040754;28;20268;-67
2021/05/23 07:22:29;;;;;;;1.07;1.07;;;;;;;19.18;75.02;97518.75;5042543;28;20197;-67
2021/05/23 07:24:55;;;;;;;1.00;1.00;;;;;;;19.16;75.05;97515.28;5039915;28;20296;-67
2021/05/23 07:27:22;;;;;;;2.70;1.03;;;;;;;19.15;75.57;97501.69;5042691;28;20527;-66
2021/05/23 07:29:49;;;;;;;1.10;1.10;;;;;;;19.15;75.22;97503.34;5041780;28;20541;-67
2021/05/23 07:32:15;;;;;;;1.10;1.10;;;;;;;19.15;75.37;97514.41;5045184;28;20200;-66
2021/05/23 07:34:42;;;;;;;1.00;1.00;;;;;;;19.16;75.17;97512.75;5038898;28;20304;-67
2021/05/23 07:37:08;;;;;;;1.10;1.10;;;;;;;19.16;75.23;97510.19;5044603;28;20229;-66
2021/05/23 07:39:35;;;;;;;1.00;1.00;;;;;;;19.16;75.90;97512.75;5038234;28;20206;-67
2021/05/23 07:42:02;;;;;;;1.10;1.10;;;;;;;19.16;75.25;97520.38;5047017;28;20284;-67
2021/05/23 07:44:28;;;;;;;0.90;0.90;;;;;;;19.16;75.15;97518.69;5039342;28;20234;-67
2021/05/23 07:46:55;;;;;;;1.00;1.00;;;;;;;19.16;75.24;97531.44;5038573;28;20457;-67
2021/05/23 07:49:21;;;;;;;0.90;0.90;;;;;;;19.16;74.96;97522.94;5044120;28;20282;-66
2021/05/23 07:51:48;;;;;;;1.10;1.00;;;;;;;19.17;75.13;97525.53;5038424;28;20197;-67
2021/05/23 07:54:15;;;;;;;1.07;1.00;;;;;;;19.18;75.15;97539.13;5045626;28;20299;-66
2021/05/23 07:56:42;;;;;;;1.00;1.00;;;;;;;19.18;75.10;97539.13;5036885;28;20616;-67
2021/05/23 07:59:08;;;;;;;1.10;1.10;;;;;;;19.18;74.92;97537.47;5047342;28;20221;-67
2021/05/23 08:01:35;;;;;;;1.00;1.00;;;;;;;19.18;75.00;97544.22;5038371;28;20205;-66
2021/05/23 08:04:02;;;;;;;1.00;1.00;;;;;;;19.17;74.95;97556.13;5038527;28;20208;-67
2021/05/23 08:06:31;;;;;;;1.00;1.00;;;;;;;19.18;75.02;97556.97;5043644;28;20197;-67
2021/05/23 08:08:57;;;;;;;1.73;0.93;;;;;;;19.16;74.59;97564.53;5038202;28;20238;-67
2021/05/23 08:11:24;;;;;;;1.00;1.00;;;;;;;19.16;75.32;97563.69;5044887;28;20284;-67
2021/05/23 08:13:50;;;;;;;1.00;1.00;;;;;;;19.17;75.45;97560.31;5041960;28;20217;-66
2021/05/23 08:16:17;;;;;;;1.00;1.00;;;;;;;19.16;75.74;97545.88;5054311;28;20576;-66
2021/05/23 08:18:43;;;;;;;1.10;1.10;;;;;;;19.15;75.58;97539.88;5043536;28;20744;-65
2021/05/23 08:21:13;;;;;;;1.00;1.00;;;;;;;19.16;75.48;97550.97;5045764;28;20563;-65
2021/05/23 08:23:46;;;;;;;1.10;1.10;;;;;;;19.17;75.15;97557.78;5050997;28;20194;-64
2021/05/23 08:26:15;;;;;;;1.00;1.00;;;;;;;19.17;75.09;97563.75;5042533;28;20256;-65
2021/05/23 08:28:42;;;;;;;0.97;0.97;;;;;;;19.16;75.23;97577.28;5050281;28;20257;-65
2021/05/23 08:31:09;;;;;;;1.10;1.10;;;;;;;19.17;75.19;97579.03;5047214;28;20224;-65
2021/05/23 08:33:35;;;;;;;1.30;1.07;;;;;;;19.18;75.06;97577.34;5047439;28;20221;-65
2021/05/23 08:36:02;;;;;;;1.10;1.10;;;;;;;19.18;75.14;97559.50;5046318;28;20235;-65
2021/05/23 08:38:29;;;;;;;1.00;1.00;;;;;;;19.18;75.02;97554.41;5047533;28;20243;-65
2021/05/23 08:40:59;;;;;;;0.97;0.97;;;;;;;19.01;75.22;97538.47;5046702;28;20197;-65
2021/05/23 08:43:27;;;;;;;1.00;1.00;;;;;;;19.17;75.14;97563.75;5029591;28;20185;-65
2021/05/23 08:45:54;;;;;;;1.10;1.10;;;;;;;19.18;75.05;97574.78;5040312;28;20193;-65
2021/05/23 08:48:21;;;;;;;1.07;1.07;;;;;;;19.00;75.11;97541.84;5045616;28;20213;-64
2021/05/23 08:50:47;;;;;;;0.90;0.90;;;;;;;18.71;75.05;97501.63;5042356;28;20228;-65
2021/05/23 08:53:14;;;;;;;1.10;1.10;;;;;;;18.45;75.05;97456.47;5045120;28;20198;-64
2021/05/23 08:55:43;;;;;;;1.10;1.00;;;;;;;19.16;75.23;97573.88;5034326;28;20225;-65
2021/05/23 08:58:10;;;;;;;1.00;1.00;;;;;;;19.16;75.08;97579.81;5044603;28;20221;-64
2021/05/23 09:00:36;;;;;;;1.00;1.00;;;;;;;19.16;75.29;97582.38;5036712;28;20232;-64
2021/05/23 09:03:08;;;;;;;1.10;1.10;;;;;;;19.15;75.17;97583.19;5043316;28;20202;-65
2021/05/23 09:05:50;;;;;;;1.00;1.00;;;;;;;19.15;75.04;97583.19;5044371;28;20201;-65
2021/05/23 09:08:21;;;;;;;1.00;1.00;;;;;;;19.16;75.21;97594.25;5040811;28;20324;-65
2021/05/23 09:10:49;;;;;;;1.00;1.00;;;;;;;19.16;75.24;97589.16;5045701;28;20590;-65
2021/05/23 09:13:36;;;;;;;1.30;1.20;;;;;;;19.16;75.21;97731.84;5044542;28;20204;-65
2021/05/23 09:16:08;;;;;;;1.03;1.03;;;;;;;19.00;75.05;97564.75;5050095;28;20197;-65
2021/05/23 09:18:42;;;;;;;1.00;1.00;;;;;;;19.17;75.08;97606.19;5039194;28;20217;-65
2021/05/23 09:21:09;;;;;;;1.10;1.10;;;;;;;19.17;75.17;97596.88;5038775;28;20233;-65
2021/05/23 09:23:47;;;;;;;1.00;1.00;;;;;;;19.16;75.20;97614.66;5034707;28;20606;-66
2021/05/23 09:26:19;;;;;;;0.90;0.90;;;;;;;19.18;74.98;97608.78;5042227;28;20197;-65
2021/05/23 09:28:46;;;;;;;1.10;1.00;;;;;;;19.16;74.94;97609.56;5045230;28;20217;-65
2021/05/23 09:31:14;;;;;;;1.00;1.00;;;;;;;19.17;75.13;97619.81;5043917;28;20198;-64
2021/05/23 09:33:42;;;;;;;0.90;0.90;;;;;;;19.17;74.92;97621.47;5042316;28;20221;-64
2021/05/23 09:36:09;;;;;;;0.90;0.90;;;;;;;19.16;74.83;97607.00;5043602;28;20201;-65
2021/05/23 09:38:39;;;;;;;0.90;0.90;;;;;;;18.36;75.26;97612.91;5033820;28;20305;-65
2021/05/23 09:41:16;;;;;;;0.87;0.87;;;;;;;19.15;75.00;97626.50;5041644;28;20204;-64
2021/05/23 09:43:43;;;;;;;1.00;1.00;;;;;;;19.15;75.20;97623.06;5015812;28;20219;-64
2021/05/23 09:46:09;;;;;;;1.10;1.10;;;;;;;19.14;75.35;97614.59;5038897;28;20205;-64
2021/05/23 09:48:36;;;;;;;0.90;0.90;;;;;;;19.16;75.11;97619.75;5028699;28;20221;-64
2021/05/23 09:51:14;;;;;;;0.90;0.90;;;;;;;19.15;75.07;97613.75;5039614;28;20504;-64
2021/05/23 09:53:44;;;;;;;0.90;0.90;;;;;;;19.02;75.25;97592.84;5038233;28;20224;-64
2021/05/23 09:56:14;;;;;;;1.00;1.00;;;;;;;19.15;75.12;97621.41;5022399;28;20200;-64
2021/05/23 09:58:47;;;;;;;1.03;1.03;;;;;;;19.16;75.18;97624.84;5043731;28;20221;-63
2021/05/23 10:01:24;;;;;;;0.90;0.90;;;;;;;19.16;75.16;97620.59;5039031;28;20232;-64
2021/05/23 10:03:53;;;;;;;0.90;0.90;;;;;;;19.15;74.98;97618.84;5037908;28;20235;-64
2021/05/23 10:06:30;;;;;;;1.10;1.10;;;;;;;19.16;75.04;97617.19;5039448;28;20585;-64
2021/05/23 10:08:57;;;;;;;1.17;1.10;;;;;;;19.16;74.94;97620.59;5037288;28;20326;-64
2021/05/23 10:11:24;;;;;;;0.93;0.93;;;;;;;19.16;74.97;97632.47;5043980;28;20201;-64
2021/05/23 10:13:51;;;;;;;1.00;1.00;;;;;;;19.15;75.13;97633.25;5019477;28;20267;-64
2021/05/23 10:16:21;;;;;;;0.90;0.90;;;;;;;19.15;74.86;97638.34;5044458;28;20255;-65
2021/05/23 10:18:48;;;;;;;0.97;0.97;;;;;;;19.15;75.24;97630.72;5036175;28;20249;-65
2021/05/23 10:21:15;;;;;;;1.00;1.00;;;;;;;19.14;75.15;97632.41;5020249;28;20207;-64
2021/05/23 10:23:47;;;;;;;1.00;1.00;;;;;;;18.36;74.95;97494.22;5025084;28;20203;-64
2021/05/23 10:26:14;;;;;;;1.00;1.00;;;;;;;19.14;75.16;97640.06;5021090;28;20201;-65
2021/05/23 10:28:42;;;;;;;1.40;1.10;;;;;;;19.14;75.17;97634.97;5042051;28;20271;-64
2021/05/23 10:31:13;;;;;;;1.00;1.00;;;;;;;19.16;75.07;97632.47;5038638;28;20673;-64
2021/05/23 10:33:51;;;;;;;1.07;1.07;;;;;;;19.14;75.28;97631.53;5038485;28;20244;-64
2021/05/23 10:36:47;;;;;;;1.00;1.00;;;;;;;19.15;75.09;97630.72;5039244;28;20617;-65
2021/05/23 10:39:14;;;;;;;1.00;1.00;;;;;;;19.14;75.18;97634.97;5026272;28;20212;-64
2021/05/23 10:41:42;;;;;;;1.00;1.00;;;;;;;19.14;75.24;97624.78;5041492;28;20292;-64
2021/05/23 10:44:22;;;;;;;0.90;0.90;;;;;;;19.15;75.13;97633.25;5023102;28;20199;-65
2021/05/23 10:46:52;;;;;;;1.10;1.10;;;;;;;19.14;75.24;97627.31;5035847;28;20210;-65
2021/05/23 10:49:19;;;;;;;0.83;0.83;;;;;;;19.16;74.99;97642.66;5039880;28;20220;-64
2021/05/23 10:51:56;;;;;;;1.00;1.00;;;;;;;19.16;75.23;97647.75;5036494;28;20247;-64
2021/05/23 10:54:23;;;;;;;1.00;1.00;;;;;;;18.97;75.07;97614.69;5042270;28;20216;-65
2021/05/23 10:56:59;;;;;;;0.90;0.90;;;;;;;19.15;74.89;97635.81;5035021;28;20453;-65
2021/05/23 10:59:29;;;;;;;1.00;1.00;;;;;;;18.66;74.98;97545.53;5041754;28;20217;-65
2021/05/23 11:01:56;;;;;;;0.80;0.80;;;;;;;19.15;75.07;97633.25;5019904;28;20217;-65
2021/05/23 11:04:23;;;;;;;0.90;0.90;;;;;;;19.15;74.96;97635.81;5036867;28;20621;-64
2021/05/23 11:06:50;;;;;;;0.87;0.87;;;;;;;18.31;74.86;97488.06;5023885;28;20202;-65
2021/05/23 11:09:20;;;;;;;1.00;1.00;;;;;;;18.46;74.88;97557.44;5086895;22;20705;-67
2021/05/23 11:11:47;;;;;;;0.93;0.93;;;;;;;19.15;75.06;97707.13;5072000;28;20204;-68
2021/05/23 11:14:14;;;;;;;1.00;1.00;;;;;;;19.15;75.25;97708.03;5070435;28;20268;-68
2021/05/23 11:16:47;;;;;;;0.97;0.97;;;;;;;19.15;75.16;97696.94;5089597;28;20287;-69
2021/05/23 11:19:13;;;;;;;1.00;1.00;;;;;;;19.01;75.67;97670.06;5074261;28;20247;-68
2021/05/23 11:21:41;;;;;;;0.90;0.90;;;;;;;18.70;75.05;97608.47;5035833;28;20225;-68
2021/05/23 11:24:09;;;;;;;0.80;0.80;;;;;;;19.01;75.04;97659.88;5034062;28;20197;-68
2021/05/23 11:26:36;;;;;;;0.90;0.90;;;;;;;18.55;75.13;97579.84;5035038;28;20246;-68
2021/05/23 11:29:03;;;;;;;1.00;1.00;;;;;;;19.10;75.05;97675.53;5051663;28;20608;-68
2021/05/23 11:31:41;;;;;;;1.00;1.00;;;;;;;19.10;74.96;97672.97;5034146;28;20598;-68
2021/05/23 11:34:08;;;;;;;1.10;1.10;;;;;;;19.01;74.32;97649.69;5035845;28;20274;-68
2021/05/23 11:36:36;;;;;;;0.90;0.90;;;;;;;18.94;74.90;97634.94;5034535;28;20337;-68